Global Saikai — 3ELY3 — position and weather

sailwx.info

Track history (hours):
 
Tides and Currents Weather Stations Pressure Air Temp Water Temp Dewpoint Dewpoint Depression Visibility Wind Speed Wind Dir Waves Ship Positions

Global Saikai

Last reported at 2018-Jan-11 10:41 UTC. Time now 2018-Jan-24 01:41 UTC.
Position N 46°13' W 125°44'.
Warning: this ship's position is 12 days out of date.

Length 189 m; draft 11.9 m.

Type: Ship. MMSI: 356566000.

Date/timePositionNaut miles runAvg speedWind from/ knotsBaromVisibWave heightAir tempDewpointWater temp
2018-Jan-11 10:41N 46°13' W 125°44'210.7
2018-Jan-11 10:30N 46°13' W 125°41'510.6
2018-Jan-11 10:00N 46°14' W 125°33'510.7
2018-Jan-11 09:30N 46°14' W 125°26'510.7
2018-Jan-11 09:00N 46°15' W 125°18'510.7
2018-Jan-11 08:30N 46°15' W 125°10'510.6
2018-Jan-11 08:00N 46°15' W 125°03'4 8.3
2018-Jan-11 07:31N 46°14' W 124°57'0 0.9
2018-Jan-11 07:01N 46°15' W 124°57'5 9.6
2018-Jan-11 06:30N 46°14' W 124°50'610.9
2018-Jan-11 06:00N 46°14' W 124°42'510.8
2018-Jan-11 05:30N 46°14' W 124°35'610.8
2018-Jan-11 04:57N 46°13' W 124°26'510.9
2018-Jan-11 04:30N 46°13' W 124°19'510.8
2018-Jan-11 04:01N 46°12' W 124°11'5 9.7
2018-Jan-11 03:30N 46°15' W 124°05'4 8.8
2018-Jan-11 03:01N 46°14' W 123°59'5 9.5
2018-Jan-11 02:30N 46°11' W 123°54'4 7.6
2018-Jan-11 02:00N 46°12' W 123°48'5 9.3
2018-Jan-11 01:31N 46°15' W 123°42'611.7
2018-Jan-11 01:00N 46°15' W 123°34'511.0
2018-Jan-11 00:30N 46°15' W 123°26'611.3
2018-Jan-11 00:01N 46°09' W 123°24'612.2
2018-Jan-10 23:30N 46°10' W 123°15'612.1
2018-Jan-10 23:00N 46°11' W 123°06'611.7
2018-Jan-10 22:31N 46°07' W 122°59'1 2.4
2018-Jan-10 21:59N 46°07' W 122°58'0 0.0
2018-Jan-10 21:29N 46°07' W 122°58'0 0.0
2018-Jan-10 20:59N 46°07' W 122°58'0 0.0
2018-Jan-10 20:28N 46°07' W 122°58'0 0.0
2018-Jan-10 19:29N 46°07' W 122°58'0 0.0
2018-Jan-10 18:59N 46°07' W 122°58'0 0.0
2018-Jan-10 18:29N 46°07' W 122°58'0 0.0
2018-Jan-10 17:59N 46°07' W 122°58'0 0.0
2018-Jan-10 17:19N 46°07' W 122°58'0 0.0
2018-Jan-10 16:58N 46°07' W 122°58'0 0.0
2018-Jan-10 16:28N 46°07' W 122°58'0 0.0
2018-Jan-10 15:58N 46°07' W 122°58'0 0.0
2018-Jan-10 15:28N 46°07' W 122°58'0 0.0
2018-Jan-10 14:59N 46°07' W 122°58'0 0.0
2018-Jan-10 14:28N 46°07' W 122°58'0 0.0
2018-Jan-10 13:58N 46°07' W 122°58'0 0.0
2018-Jan-10 13:19N 46°07' W 122°58'0 0.0
2018-Jan-10 12:59N 46°07' W 122°58'0 0.0
2018-Jan-10 12:28N 46°07' W 122°58'0 0.0
2018-Jan-10 11:55N 46°07' W 122°58'0 0.0
2018-Jan-10 11:25N 46°07' W 122°58'0 0.0
2018-Jan-10 10:59N 46°07' W 122°58'0 0.0
2018-Jan-10 10:28N 46°07' W 122°58'0 0.0
2018-Jan-10 09:59N 46°07' W 122°58'0 0.0
2018-Jan-10 09:29N 46°07' W 122°58'0 0.0
2018-Jan-10 08:59N 46°07' W 122°58'0 0.0
2018-Jan-10 08:28N 46°07' W 122°58'0 0.0
2018-Jan-10 07:52N 46°07' W 122°58'0 0.0
2018-Jan-10 07:17N 46°07' W 122°58'0 0.0
2018-Jan-10 06:58N 46°07' W 122°58'0 0.0
2018-Jan-10 06:26N 46°07' W 122°58'0 0.0
2018-Jan-10 05:59N 46°07' W 122°58'0 0.0
2018-Jan-10 05:26N 46°07' W 122°58'0 0.0
2018-Jan-10 04:59N 46°07' W 122°58'0 0.0
2018-Jan-10 04:28N 46°07' W 122°58'0 0.0
2018-Jan-10 03:59N 46°07' W 122°58'0 0.0
2018-Jan-10 03:29N 46°07' W 122°58'0 0.0
2018-Jan-10 02:32N 46°07' W 122°58'0 0.0
2018-Jan-10 02:28N 46°07' W 122°58'0 0.0
2018-Jan-10 01:55N 46°07' W 122°58'0 0.0
2018-Jan-10 01:20N 46°07' W 122°58'0 0.0
2018-Jan-10 00:19N 46°07' W 122°58'0 0.0
2018-Jan-09 23:50N 46°07' W 122°58'0 0.0
2018-Jan-09 23:29N 46°07' W 122°58'0 0.0
2018-Jan-09 22:59N 46°07' W 122°58'0 0.0
2018-Jan-09 22:28N 46°07' W 122°58'0 0.0
2018-Jan-09 21:59N 46°07' W 122°58'0 0.0
2018-Jan-09 21:29N 46°07' W 122°58'0 0.0
2018-Jan-09 20:56N 46°07' W 122°58'0 0.0
2018-Jan-09 20:26N 46°07' W 122°58'0 0.0
2018-Jan-09 19:59N 46°07' W 122°58'0 0.0
2018-Jan-09 19:26N 46°07' W 122°58'0 0.0
2018-Jan-09 18:59N 46°07' W 122°58'0 0.0
2018-Jan-09 18:23N 46°07' W 122°58'0 0.0
2018-Jan-09 17:56N 46°07' W 122°58'0 0.0
2018-Jan-09 17:29N 46°07' W 122°58'0 0.0
2018-Jan-09 16:59N 46°07' W 122°58'0 0.0
2018-Jan-09 16:26N 46°07' W 122°58'0 0.0
2018-Jan-09 15:56N 46°07' W 122°58'0 0.0
2018-Jan-09 15:25N 46°07' W 122°58'0 0.0
2018-Jan-09 14:55N 46°07' W 122°58'0 0.0
2018-Jan-09 14:29N 46°07' W 122°58'0 0.0
2018-Jan-09 13:59N 46°07' W 122°58'0 0.0
2018-Jan-09 13:29N 46°07' W 122°58'0 0.0
2018-Jan-09 12:59N 46°07' W 122°58'0 0.0
2018-Jan-09 12:29N 46°07' W 122°58'0 0.0
2018-Jan-09 11:59N 46°07' W 122°58'0 0.0
2018-Jan-09 11:29N 46°07' W 122°58'0 0.0
2018-Jan-09 10:59N 46°07' W 122°58'0 0.0
2018-Jan-09 10:29N 46°07' W 122°58'0 0.0
2018-Jan-09 09:55N 46°07' W 122°58'0 0.0
2018-Jan-09 09:29N 46°07' W 122°58'0 0.0
2018-Jan-09 08:56N 46°07' W 122°58'0 0.0
2018-Jan-09 08:29N 46°07' W 122°58'0 0.0
2018-Jan-09 07:50N 46°07' W 122°58'0 0.0
2018-Jan-09 07:29N 46°07' W 122°58'0 0.0
2018-Jan-09 06:56N 46°07' W 122°58'0 0.0
2018-Jan-09 06:26N 46°07' W 122°58'0 0.0
2018-Jan-09 05:56N 46°07' W 122°58'0 0.0
2018-Jan-09 05:29N 46°07' W 122°58'0 0.0
2018-Jan-09 04:59N 46°07' W 122°58'0 0.0
2018-Jan-09 04:29N 46°07' W 122°58'0 0.0
2018-Jan-09 03:59N 46°07' W 122°58'0 0.0
2018-Jan-09 03:26N 46°07' W 122°58'0 0.0
2018-Jan-09 02:56N 46°07' W 122°58'0 0.0
2018-Jan-09 02:29N 46°07' W 122°58'0 0.0
2018-Jan-09 01:59N 46°07' W 122°58'0 0.0
2018-Jan-09 01:29N 46°07' W 122°58'0 0.0
2018-Jan-09 00:58N 46°07' W 122°58'0 0.0
2018-Jan-09 00:29N 46°07' W 122°58'0 0.0
2018-Jan-08 23:59N 46°07' W 122°58'0 0.0
2018-Jan-08 23:29N 46°07' W 122°58'0 0.0
2018-Jan-08 22:59N 46°07' W 122°58'0 0.0
2018-Jan-08 22:20N 46°07' W 122°58'0 0.0
2018-Jan-08 21:56N 46°07' W 122°58'0 0.0
2018-Jan-08 21:19N 46°07' W 122°58'0 0.0
2018-Jan-08 20:55N 46°07' W 122°58'0 0.0
2018-Jan-08 20:23N 46°07' W 122°58'0 0.0
2018-Jan-08 19:53N 46°07' W 122°58'0 0.0
2018-Jan-08 19:29N 46°07' W 122°58'0 0.0
2018-Jan-08 18:56N 46°07' W 122°58'0 0.0
2018-Jan-08 18:26N 46°07' W 122°58'0 0.0
2018-Jan-08 17:55N 46°07' W 122°58'0 0.0
2018-Jan-08 17:29N 46°07' W 122°58'0 0.0
2018-Jan-08 16:58N 46°07' W 122°58'0 0.0
2018-Jan-08 16:28N 46°07' W 122°58'0 0.0
2018-Jan-08 15:56N 46°07' W 122°58'0 0.0
2018-Jan-08 15:29N 46°07' W 122°58'0 0.0
2018-Jan-08 14:53N 46°07' W 122°58'0 0.0
2018-Jan-08 14:26N 46°07' W 122°58'0 0.0
2018-Jan-08 13:56N 46°07' W 122°58'0 0.0
2018-Jan-08 13:28N 46°07' W 122°58'0 0.0
2018-Jan-08 12:58N 46°07' W 122°58'0 0.0
2018-Jan-08 12:29N 46°07' W 122°58'0 0.0
2018-Jan-08 11:56N 46°07' W 122°58'0 0.0
2018-Jan-08 11:28N 46°07' W 122°58'0 0.0
2018-Jan-08 10:59N 46°07' W 122°58'0 0.0
2018-Jan-08 10:29N 46°07' W 122°58'0 0.0
2018-Jan-08 09:58N 46°07' W 122°58'0 0.0
2018-Jan-08 09:22N 46°07' W 122°58'0 0.0
2018-Jan-08 08:59N 46°07' W 122°58'0 0.0
2018-Jan-08 08:29N 46°07' W 122°58'0 0.0
2018-Jan-08 07:59N 46°07' W 122°58'0 0.0
2018-Jan-08 06:41N 46°07' W 122°58'0 0.0
2018-Jan-08 06:28N 46°07' W 122°58'0 0.0
2018-Jan-08 05:08N 46°07' W 122°58'0 0.0
2018-Jan-08 04:58N 46°07' W 122°58'0 0.0
2018-Jan-08 04:29N 46°07' W 122°58'0 0.0
2018-Jan-08 03:50N 46°07' W 122°58'0 0.0
2018-Jan-08 03:22N 46°07' W 122°58'0 0.0
2018-Jan-08 02:56N 46°07' W 122°58'0 0.0
2018-Jan-08 02:28N 46°07' W 122°58'0 0.0
2018-Jan-08 01:59N 46°07' W 122°58'0 0.0
2018-Jan-08 01:19N 46°07' W 122°58'0 0.0
2018-Jan-08 00:50N 46°07' W 122°58'0 0.0
2018-Jan-08 00:13N 46°07' W 122°58'0 0.0
2018-Jan-07 23:55N 46°07' W 122°58'0 0.0
2018-Jan-07 22:25N 46°07' W 122°58'0 0.0
2018-Jan-07 17:28N 46°07' W 122°58'0 0.0
2018-Jan-07 16:55N 46°07' W 122°58'0 0.0
2018-Jan-07 16:29N 46°07' W 122°58'0 0.0
2018-Jan-07 15:25N 46°07' W 122°58'0 0.0
2018-Jan-07 14:59N 46°07' W 122°58'0 0.0
2018-Jan-07 14:28N 46°07' W 122°58'0 0.0
2018-Jan-07 13:58N 46°07' W 122°58'0 0.0
2018-Jan-07 13:28N 46°07' W 122°58'0 0.0
2018-Jan-07 12:35N 46°07' W 122°58'0 0.0
2018-Jan-07 12:28N 46°07' W 122°58'0 0.0
2018-Jan-07 11:55N 46°07' W 122°58'0 0.0
2018-Jan-07 11:28N 46°07' W 122°58'0 0.0
2018-Jan-07 10:55N 46°07' W 122°58'0 0.0
2018-Jan-07 10:28N 46°07' W 122°58'0 0.0
2018-Jan-07 09:59N 46°07' W 122°58'0 0.0
2018-Jan-07 09:26N 46°07' W 122°58'0 0.0
2018-Jan-07 08:59N 46°07' W 122°58'0 0.0
2018-Jan-07 08:28N 46°07' W 122°58'0 0.0
2018-Jan-07 07:58N 46°07' W 122°58'0 0.0
2018-Jan-07 07:29N 46°07' W 122°58'0 0.0
2018-Jan-07 06:53N 46°07' W 122°58'0 0.0
2018-Jan-07 06:23N 46°07' W 122°58'0 0.0
2018-Jan-07 05:56N 46°07' W 122°58'0 0.0
2018-Jan-07 05:26N 46°07' W 122°58'0 0.0
2018-Jan-07 04:59N 46°07' W 122°58'0 0.0
2018-Jan-07 04:29N 46°07' W 122°58'0 0.0
2018-Jan-07 03:59N 46°07' W 122°58'0 0.0
2018-Jan-07 02:56N 46°07' W 122°58'0 0.0
2018-Jan-07 02:25N 46°07' W 122°58'0 0.0
2018-Jan-07 01:55N 46°07' W 122°58'0 0.0
2018-Jan-07 01:28N 46°07' W 122°58'0 0.0
2018-Jan-05 19:49N 46°07' W 122°58'0 0.0
2018-Jan-05 18:50N 46°07' W 122°58'0 0.0
2018-Jan-05 17:49N 46°07' W 122°58'17 1.8
2018-Jan-05 08:25N 46°09' W 123°22'4 9.0
2018-Jan-05 08:00N 46°11' W 123°26'510.1
2018-Jan-05 07:30N 46°16' W 123°28'510.8
2018-Jan-05 07:00N 46°15' W 123°36'510.2
2018-Jan-05 06:30N 46°14' W 123°43'5 9.6
2018-Jan-05 06:00N 46°12' W 123°49'1 1.1
2018-Jan-05 05:30N 46°12' W 123°50'0 0.0
2018-Jan-05 05:00N 46°12' W 123°50'0 0.0
2018-Jan-05 04:30N 46°12' W 123°50'0 0.1
2018-Jan-05 04:00N 46°12' W 123°50'0 0.1
2018-Jan-05 03:30N 46°12' W 123°50'0 0.0
2018-Jan-05 03:00N 46°12' W 123°50'0 0.0
2018-Jan-05 02:30N 46°12' W 123°50'0 0.0
2018-Jan-05 02:00N 46°12' W 123°50'0 0.0
2018-Jan-05 01:27N 46°12' W 123°50'0 0.0
2018-Jan-05 01:00N 46°12' W 123°50'0 0.2
2018-Jan-05 00:30N 46°12' W 123°50'0 0.0
2018-Jan-05 00:00N 46°12' W 123°50'0 0.3
2018-Jan-04 23:30N 46°12' W 123°50'0 0.2
2018-Jan-04 23:00N 46°12' W 123°50'0 0.1
2018-Jan-04 22:30N 46°12' W 123°49'0 0.0
2018-Jan-04 22:00N 46°12' W 123°49'0 0.0
2018-Jan-04 21:30N 46°12' W 123°49'0 0.0
2018-Jan-04 21:00N 46°12' W 123°49'0 0.0
2018-Jan-04 20:30N 46°12' W 123°49'0 0.0
2018-Jan-04 20:00N 46°12' W 123°49'0 0.2
2018-Jan-04 19:27N 46°12' W 123°50'0 0.5
2018-Jan-04 19:00N 46°12' W 123°50'0 0.1
2018-Jan-04 18:27N 46°12' W 123°50'0 0.0
2018-Jan-04 17:57N 46°12' W 123°50'0 0.0
2018-Jan-04 17:30N 46°12' W 123°50'0 0.0
2018-Jan-04 16:57N 46°12' W 123°50'0 0.0
2018-Jan-04 16:30N 46°12' W 123°50'0 0.1
2018-Jan-04 16:00N 46°12' W 123°50'2 3.2
2018-Jan-04 15:31N 46°12' W 123°52'6 7.6
2018-Jan-04 14:41N 46°15' W 123°60'1 8.2
2018-Jan-04 14:31N 46°15' W 124°02'4 8.4
2018-Jan-04 14:01N 46°14' W 124°07'611.7
2018-Jan-04 13:29N 46°10' W 124°14'4 7.6
2018-Jan-04 13:00N 46°11' W 124°19'0 0.9
2018-Jan-04 12:31N 46°11' W 124°18'3 5.0
2018-Jan-04 12:01N 46°11' W 124°22'3 5.8
2018-Jan-04 11:31N 46°12' W 124°26'712.3
2018-Jan-04 10:54N 46°13' W 124°37'512.3
2018-Jan-04 10:31N 46°14' W 124°44'612.4
2018-Jan-04 10:00N 46°14' W 124°53'612.7
2018-Jan-04 09:31N 46°15' W 125°02'612.5
2018-Jan-04 09:01N 46°15' W 125°11'612.5
2018-Jan-04 08:31N 46°15' W 125°20'1012.4
2018-Jan-04 07:44N 46°16' W 125°34'312.4
2018-Jan-04 07:31N 46°17' W 125°38'612.5
2018-Jan-04 07:00N 46°17' W 125°47'1112.2
2018-Jan-04 06:06N 46°18' W 126°03'112.3
2018-Jan-04 05:59N 46°18' W 126°05'612.3
2018-Jan-04 05:31N 46°19' W 126°13'612.2
2018-Jan-04 05:00N 46°19' W 126°22'612.1
2018-Jan-04 04:31N 46°20' W 126°31'611.9
2018-Jan-04 04:01N 46°21' W 126°40'611.8
2018-Jan-04 03:31N 46°21' W 126°48'611.9
2018-Jan-04 03:00N 46°22' W 126°57'611.3
2018-Jan-04 02:28N 46°22' W 127°06'3 4.6
2018-Jan-04 01:51N 46°23' W 127°09'911.9
2018-Jan-04 01:05N 46°24' W 127°23'1611.9
2018-Jan-03 23:44N 46°25' W 127°46'511.9
2018-Jan-03 23:18N 46°25' W 127°53'311.9
2018-Jan-03 23:01N 46°26' W 127°58'711.9
2018-Jan-03 22:23N 46°26' W 128°09'512.0
2018-Jan-03 22:01N 46°27' W 128°15'811.8
2018-Jan-03 21:19N 46°28' W 128°27'411.8
2018-Jan-03 21:00N 46°28' W 128°33'1411.9
2018-Jan-03 19:49N 46°29' W 128°53'611.8
2018-Jan-03 19:18N 46°30' W 129°02'411.4
2018-Jan-03 18:59N 46°31' W 129°07'511.5
2018-Jan-03 18:30N 46°33' W 129°14'611.7
2018-Jan-03 18:00N 46°35' W 129°22'611.7
2018-Jan-03 17:31N 46°37' W 129°30'611.4
2018-Jan-03 17:01N 46°40' W 129°38'611.2
2018-Jan-03 16:29N 46°42' W 129°46'5912.1
2018-Jan-03 11:37N 47°01' W 131°07'0 2.7
2018-Jan-03 11:29N 47°01' W 131°07'1112.2
2018-Jan-03 10:36N 47°05' W 131°22'112.0
2018-Jan-03 10:31N 47°05' W 131°24'712.0
2018-Jan-03 09:56N 47°08' W 131°33'611.9
2018-Jan-03 09:28N 47°09' W 131°41'512.0
2018-Jan-03 09:01N 47°11' W 131°48'612.1
2018-Jan-03 08:30N 47°13' W 131°57'612.1
2018-Jan-03 07:59N 47°15' W 132°06'612.0
2018-Jan-03 07:30N 47°17' W 132°14'611.9
2018-Jan-03 07:01N 47°19' W 132°22'2812.0
2018-Jan-03 04:43N 47°27' W 133°01'4711.8
2018-Jan-03 00:43N 47°43' W 134°07'  
Track history (hours):
 
Tides and Currents Weather Stations Pressure Air Temp Water Temp Dewpoint Dewpoint Depression Visibility Wind Speed Wind Dir Waves Ship Positions

Global Saikai

Last reported at 2018-Jan-11 10:41 UTC. Time now 2018-Jan-24 01:41 UTC.
Position N 46°13' W 125°44'.
Warning: this ship's position is 12 days out of date.

Length 189 m; draft 11.9 m.

Type: Ship. MMSI: 356566000.

Date/timePositionNaut miles runAvg speedWind from/ knotsBaromVisibWave heightAir tempDewpointWater temp
2018-Jan-11 10:41N 46°13' W 125°44'210.7
2018-Jan-11 10:30N 46°13' W 125°41'510.6
2018-Jan-11 10:00N 46°14' W 125°33'510.7
2018-Jan-11 09:30N 46°14' W 125°26'510.7
2018-Jan-11 09:00N 46°15' W 125°18'510.7
2018-Jan-11 08:30N 46°15' W 125°10'510.6
2018-Jan-11 08:00N 46°15' W 125°03'4 8.3
2018-Jan-11 07:31N 46°14' W 124°57'0 0.9
2018-Jan-11 07:01N 46°15' W 124°57'5 9.6
2018-Jan-11 06:30N 46°14' W 124°50'610.9
2018-Jan-11 06:00N 46°14' W 124°42'510.8
2018-Jan-11 05:30N 46°14' W 124°35'610.8
2018-Jan-11 04:57N 46°13' W 124°26'510.9
2018-Jan-11 04:30N 46°13' W 124°19'510.8
2018-Jan-11 04:01N 46°12' W 124°11'5 9.7
2018-Jan-11 03:30N 46°15' W 124°05'4 8.8
2018-Jan-11 03:01N 46°14' W 123°59'5 9.5
2018-Jan-11 02:30N 46°11' W 123°54'4 7.6
2018-Jan-11 02:00N 46°12' W 123°48'5 9.3
2018-Jan-11 01:31N 46°15' W 123°42'611.7
2018-Jan-11 01:00N 46°15' W 123°34'511.0
2018-Jan-11 00:30N 46°15' W 123°26'611.3
2018-Jan-11 00:01N 46°09' W 123°24'612.2
2018-Jan-10 23:30N 46°10' W 123°15'612.1
2018-Jan-10 23:00N 46°11' W 123°06'611.7
2018-Jan-10 22:31N 46°07' W 122°59'1 2.4
2018-Jan-10 21:59N 46°07' W 122°58'0 0.0
2018-Jan-10 21:29N 46°07' W 122°58'0 0.0
2018-Jan-10 20:59N 46°07' W 122°58'0 0.0
2018-Jan-10 20:28N 46°07' W 122°58'0 0.0
2018-Jan-10 19:29N 46°07' W 122°58'0 0.0
2018-Jan-10 18:59N 46°07' W 122°58'0 0.0
2018-Jan-10 18:29N 46°07' W 122°58'0 0.0
2018-Jan-10 17:59N 46°07' W 122°58'0 0.0
2018-Jan-10 17:19N 46°07' W 122°58'0 0.0
2018-Jan-10 16:58N 46°07' W 122°58'0 0.0
2018-Jan-10 16:28N 46°07' W 122°58'0 0.0
2018-Jan-10 15:58N 46°07' W 122°58'0 0.0
2018-Jan-10 15:28N 46°07' W 122°58'0 0.0
2018-Jan-10 14:59N 46°07' W 122°58'0 0.0
2018-Jan-10 14:28N 46°07' W 122°58'0 0.0
2018-Jan-10 13:58N 46°07' W 122°58'0 0.0
2018-Jan-10 13:19N 46°07' W 122°58'0 0.0
2018-Jan-10 12:59N 46°07' W 122°58'0 0.0
2018-Jan-10 12:28N 46°07' W 122°58'0 0.0
2018-Jan-10 11:55N 46°07' W 122°58'0 0.0
2018-Jan-10 11:25N 46°07' W 122°58'0 0.0
2018-Jan-10 10:59N 46°07' W 122°58'0 0.0
2018-Jan-10 10:28N 46°07' W 122°58'0 0.0
2018-Jan-10 09:59N 46°07' W 122°58'0 0.0
2018-Jan-10 09:29N 46°07' W 122°58'0 0.0
2018-Jan-10 08:59N 46°07' W 122°58'0 0.0
2018-Jan-10 08:28N 46°07' W 122°58'0 0.0
2018-Jan-10 07:52N 46°07' W 122°58'0 0.0
2018-Jan-10 07:17N 46°07' W 122°58'0 0.0
2018-Jan-10 06:58N 46°07' W 122°58'0 0.0
2018-Jan-10 06:26N 46°07' W 122°58'0 0.0
2018-Jan-10 05:59N 46°07' W 122°58'0 0.0
2018-Jan-10 05:26N 46°07' W 122°58'0 0.0
2018-Jan-10 04:59N 46°07' W 122°58'0 0.0
2018-Jan-10 04:28N 46°07' W 122°58'0 0.0
2018-Jan-10 03:59N 46°07' W 122°58'0 0.0
2018-Jan-10 03:29N 46°07' W 122°58'0 0.0
2018-Jan-10 02:32N 46°07' W 122°58'0 0.0
2018-Jan-10 02:28N 46°07' W 122°58'0 0.0
2018-Jan-10 01:55N 46°07' W 122°58'0 0.0
2018-Jan-10 01:20N 46°07' W 122°58'0 0.0
2018-Jan-10 00:19N 46°07' W 122°58'0 0.0
2018-Jan-09 23:50N 46°07' W 122°58'0 0.0
2018-Jan-09 23:29N 46°07' W 122°58'0 0.0
2018-Jan-09 22:59N 46°07' W 122°58'0 0.0
2018-Jan-09 22:28N 46°07' W 122°58'0 0.0
2018-Jan-09 21:59N 46°07' W 122°58'0 0.0
2018-Jan-09 21:29N 46°07' W 122°58'0 0.0
2018-Jan-09 20:56N 46°07' W 122°58'0 0.0
2018-Jan-09 20:26N 46°07' W 122°58'0 0.0
2018-Jan-09 19:59N 46°07' W 122°58'0 0.0
2018-Jan-09 19:26N 46°07' W 122°58'0 0.0
2018-Jan-09 18:59N 46°07' W 122°58'0 0.0
2018-Jan-09 18:23N 46°07' W 122°58'0 0.0
2018-Jan-09 17:56N 46°07' W 122°58'0 0.0
2018-Jan-09 17:29N 46°07' W 122°58'0 0.0
2018-Jan-09 16:59N 46°07' W 122°58'0 0.0
2018-Jan-09 16:26N 46°07' W 122°58'0 0.0
2018-Jan-09 15:56N 46°07' W 122°58'0 0.0
2018-Jan-09 15:25N 46°07' W 122°58'0 0.0
2018-Jan-09 14:55N 46°07' W 122°58'0 0.0
2018-Jan-09 14:29N 46°07' W 122°58'0 0.0
2018-Jan-09 13:59N 46°07' W 122°58'0 0.0
2018-Jan-09 13:29N 46°07' W 122°58'0 0.0
2018-Jan-09 12:59N 46°07' W 122°58'0 0.0
2018-Jan-09 12:29N 46°07' W 122°58'0 0.0
2018-Jan-09 11:59N 46°07' W 122°58'0 0.0
2018-Jan-09 11:29N 46°07' W 122°58'0 0.0
2018-Jan-09 10:59N 46°07' W 122°58'0 0.0
2018-Jan-09 10:29N 46°07' W 122°58'0 0.0
2018-Jan-09 09:55N 46°07' W 122°58'0 0.0
2018-Jan-09 09:29N 46°07' W 122°58'0 0.0
2018-Jan-09 08:56N 46°07' W 122°58'0 0.0
2018-Jan-09 08:29N 46°07' W 122°58'0 0.0
2018-Jan-09 07:50N 46°07' W 122°58'0 0.0
2018-Jan-09 07:29N 46°07' W 122°58'0 0.0
2018-Jan-09 06:56N 46°07' W 122°58'0 0.0
2018-Jan-09 06:26N 46°07' W 122°58'0 0.0
2018-Jan-09 05:56N 46°07' W 122°58'0 0.0
2018-Jan-09 05:29N 46°07' W 122°58'0 0.0
2018-Jan-09 04:59N 46°07' W 122°58'0 0.0
2018-Jan-09 04:29N 46°07' W 122°58'0 0.0
2018-Jan-09 03:59N 46°07' W 122°58'0 0.0
2018-Jan-09 03:26N 46°07' W 122°58'0 0.0
2018-Jan-09 02:56N 46°07' W 122°58'0 0.0
2018-Jan-09 02:29N 46°07' W 122°58'0 0.0
2018-Jan-09 01:59N 46°07' W 122°58'0 0.0
2018-Jan-09 01:29N 46°07' W 122°58'0 0.0
2018-Jan-09 00:58N 46°07' W 122°58'0 0.0
2018-Jan-09 00:29N 46°07' W 122°58'0 0.0
2018-Jan-08 23:59N 46°07' W 122°58'0 0.0
2018-Jan-08 23:29N 46°07' W 122°58'0 0.0
2018-Jan-08 22:59N 46°07' W 122°58'0 0.0
2018-Jan-08 22:20N 46°07' W 122°58'0 0.0
2018-Jan-08 21:56N 46°07' W 122°58'0 0.0
2018-Jan-08 21:19N 46°07' W 122°58'0 0.0
2018-Jan-08 20:55N 46°07' W 122°58'0 0.0
2018-Jan-08 20:23N 46°07' W 122°58'0 0.0
2018-Jan-08 19:53N 46°07' W 122°58'0 0.0
2018-Jan-08 19:29N 46°07' W 122°58'0 0.0
2018-Jan-08 18:56N 46°07' W 122°58'0 0.0
2018-Jan-08 18:26N 46°07' W 122°58'0 0.0
2018-Jan-08 17:55N 46°07' W 122°58'0 0.0
2018-Jan-08 17:29N 46°07' W 122°58'0 0.0
2018-Jan-08 16:58N 46°07' W 122°58'0 0.0
2018-Jan-08 16:28N 46°07' W 122°58'0 0.0
2018-Jan-08 15:56N 46°07' W 122°58'0 0.0
2018-Jan-08 15:29N 46°07' W 122°58'0 0.0
2018-Jan-08 14:53N 46°07' W 122°58'0 0.0
2018-Jan-08 14:26N 46°07' W 122°58'0 0.0
2018-Jan-08 13:56N 46°07' W 122°58'0 0.0
2018-Jan-08 13:28N 46°07' W 122°58'0 0.0
2018-Jan-08 12:58N 46°07' W 122°58'0 0.0
2018-Jan-08 12:29N 46°07' W 122°58'0 0.0
2018-Jan-08 11:56N 46°07' W 122°58'0 0.0
2018-Jan-08 11:28N 46°07' W 122°58'0 0.0
2018-Jan-08 10:59N 46°07' W 122°58'0 0.0
2018-Jan-08 10:29N 46°07' W 122°58'0 0.0
2018-Jan-08 09:58N 46°07' W 122°58'0 0.0
2018-Jan-08 09:22N 46°07' W 122°58'0 0.0
2018-Jan-08 08:59N 46°07' W 122°58'0 0.0
2018-Jan-08 08:29N 46°07' W 122°58'0 0.0
2018-Jan-08 07:59N 46°07' W 122°58'0 0.0
2018-Jan-08 06:41N 46°07' W 122°58'0 0.0
2018-Jan-08 06:28N 46°07' W 122°58'0 0.0
2018-Jan-08 05:08N 46°07' W 122°58'0 0.0
2018-Jan-08 04:58N 46°07' W 122°58'0 0.0
2018-Jan-08 04:29N 46°07' W 122°58'0 0.0
2018-Jan-08 03:50N 46°07' W 122°58'0 0.0
2018-Jan-08 03:22N 46°07' W 122°58'0 0.0
2018-Jan-08 02:56N 46°07' W 122°58'0 0.0
2018-Jan-08 02:28N 46°07' W 122°58'0 0.0
2018-Jan-08 01:59N 46°07' W 122°58'0 0.0
2018-Jan-08 01:19N 46°07' W 122°58'0 0.0
2018-Jan-08 00:50N 46°07' W 122°58'0 0.0
2018-Jan-08 00:13N 46°07' W 122°58'0 0.0
2018-Jan-07 23:55N 46°07' W 122°58'0 0.0
2018-Jan-07 22:25N 46°07' W 122°58'0 0.0
2018-Jan-07 17:28N 46°07' W 122°58'0 0.0
2018-Jan-07 16:55N 46°07' W 122°58'0 0.0
2018-Jan-07 16:29N 46°07' W 122°58'0 0.0
2018-Jan-07 15:25N 46°07' W 122°58'0 0.0
2018-Jan-07 14:59N 46°07' W 122°58'0 0.0
2018-Jan-07 14:28N 46°07' W 122°58'0 0.0
2018-Jan-07 13:58N 46°07' W 122°58'0 0.0
2018-Jan-07 13:28N 46°07' W 122°58'0 0.0
2018-Jan-07 12:35N 46°07' W 122°58'0 0.0
2018-Jan-07 12:28N 46°07' W 122°58'0 0.0
2018-Jan-07 11:55N 46°07' W 122°58'0 0.0
2018-Jan-07 11:28N 46°07' W 122°58'0 0.0
2018-Jan-07 10:55N 46°07' W 122°58'0 0.0
2018-Jan-07 10:28N 46°07' W 122°58'0 0.0
2018-Jan-07 09:59N 46°07' W 122°58'0 0.0
2018-Jan-07 09:26N 46°07' W 122°58'0 0.0
2018-Jan-07 08:59N 46°07' W 122°58'0 0.0
2018-Jan-07 08:28N 46°07' W 122°58'0 0.0
2018-Jan-07 07:58N 46°07' W 122°58'0 0.0
2018-Jan-07 07:29N 46°07' W 122°58'0 0.0
2018-Jan-07 06:53N 46°07' W 122°58'0 0.0
2018-Jan-07 06:23N 46°07' W 122°58'0 0.0
2018-Jan-07 05:56N 46°07' W 122°58'0 0.0
2018-Jan-07 05:26N 46°07' W 122°58'0 0.0
2018-Jan-07 04:59N 46°07' W 122°58'0 0.0
2018-Jan-07 04:29N 46°07' W 122°58'0 0.0
2018-Jan-07 03:59N 46°07' W 122°58'0 0.0
2018-Jan-07 02:56N 46°07' W 122°58'0 0.0
2018-Jan-07 02:25N 46°07' W 122°58'0 0.0
2018-Jan-07 01:55N 46°07' W 122°58'0 0.0
2018-Jan-07 01:28N 46°07' W 122°58'0 0.0
2018-Jan-05 19:49N 46°07' W 122°58'0 0.0
2018-Jan-05 18:50N 46°07' W 122°58'0 0.0
2018-Jan-05 17:49N 46°07' W 122°58'17 1.8
2018-Jan-05 08:25N 46°09' W 123°22'4 9.0
2018-Jan-05 08:00N 46°11' W 123°26'510.1
2018-Jan-05 07:30N 46°16' W 123°28'510.8
2018-Jan-05 07:00N 46°15' W 123°36'510.2
2018-Jan-05 06:30N 46°14' W 123°43'5 9.6
2018-Jan-05 06:00N 46°12' W 123°49'1 1.1
2018-Jan-05 05:30N 46°12' W 123°50'0 0.0
2018-Jan-05 05:00N 46°12' W 123°50'0 0.0
2018-Jan-05 04:30N 46°12' W 123°50'0 0.1
2018-Jan-05 04:00N 46°12' W 123°50'0 0.1
2018-Jan-05 03:30N 46°12' W 123°50'0 0.0
2018-Jan-05 03:00N 46°12' W 123°50'0 0.0
2018-Jan-05 02:30N 46°12' W 123°50'0 0.0
2018-Jan-05 02:00N 46°12' W 123°50'0 0.0
2018-Jan-05 01:27N 46°12' W 123°50'0 0.0
2018-Jan-05 01:00N 46°12' W 123°50'0 0.2
2018-Jan-05 00:30N 46°12' W 123°50'0 0.0
2018-Jan-05 00:00N 46°12' W 123°50'0 0.3
2018-Jan-04 23:30N 46°12' W 123°50'0 0.2
2018-Jan-04 23:00N 46°12' W 123°50'0 0.1
2018-Jan-04 22:30N 46°12' W 123°49'0 0.0
2018-Jan-04 22:00N 46°12' W 123°49'0 0.0
2018-Jan-04 21:30N 46°12' W 123°49'0 0.0
2018-Jan-04 21:00N 46°12' W 123°49'0 0.0
2018-Jan-04 20:30N 46°12' W 123°49'0 0.0
2018-Jan-04 20:00N 46°12' W 123°49'0 0.2
2018-Jan-04 19:27N 46°12' W 123°50'0 0.5
2018-Jan-04 19:00N 46°12' W 123°50'0 0.1
2018-Jan-04 18:27N 46°12' W 123°50'0 0.0
2018-Jan-04 17:57N 46°12' W 123°50'0 0.0
2018-Jan-04 17:30N 46°12' W 123°50'0 0.0
2018-Jan-04 16:57N 46°12' W 123°50'0 0.0
2018-Jan-04 16:30N 46°12' W 123°50'0 0.1
2018-Jan-04 16:00N 46°12' W 123°50'2 3.2
2018-Jan-04 15:31N 46°12' W 123°52'6 7.6
2018-Jan-04 14:41N 46°15' W 123°60'1 8.2
2018-Jan-04 14:31N 46°15' W 124°02'4 8.4
2018-Jan-04 14:01N 46°14' W 124°07'611.7
2018-Jan-04 13:29N 46°10' W 124°14'4 7.6
2018-Jan-04 13:00N 46°11' W 124°19'0 0.9
2018-Jan-04 12:31N 46°11' W 124°18'3 5.0
2018-Jan-04 12:01N 46°11' W 124°22'3 5.8
2018-Jan-04 11:31N 46°12' W 124°26'712.3
2018-Jan-04 10:54N 46°13' W 124°37'512.3
2018-Jan-04 10:31N 46°14' W 124°44'612.4
2018-Jan-04 10:00N 46°14' W 124°53'612.7
2018-Jan-04 09:31N 46°15' W 125°02'612.5
2018-Jan-04 09:01N 46°15' W 125°11'612.5
2018-Jan-04 08:31N 46°15' W 125°20'1012.4
2018-Jan-04 07:44N 46°16' W 125°34'312.4
2018-Jan-04 07:31N 46°17' W 125°38'612.5
2018-Jan-04 07:00N 46°17' W 125°47'1112.2
2018-Jan-04 06:06N 46°18' W 126°03'112.3
2018-Jan-04 05:59N 46°18' W 126°05'612.3
2018-Jan-04 05:31N 46°19' W 126°13'612.2
2018-Jan-04 05:00N 46°19' W 126°22'612.1
2018-Jan-04 04:31N 46°20' W 126°31'611.9
2018-Jan-04 04:01N 46°21' W 126°40'611.8
2018-Jan-04 03:31N 46°21' W 126°48'611.9
2018-Jan-04 03:00N 46°22' W 126°57'611.3
2018-Jan-04 02:28N 46°22' W 127°06'3 4.6
2018-Jan-04 01:51N 46°23' W 127°09'911.9
2018-Jan-04 01:05N 46°24' W 127°23'1611.9
2018-Jan-03 23:44N 46°25' W 127°46'511.9
2018-Jan-03 23:18N 46°25' W 127°53'311.9
2018-Jan-03 23:01N 46°26' W 127°58'711.9
2018-Jan-03 22:23N 46°26' W 128°09'512.0
2018-Jan-03 22:01N 46°27' W 128°15'811.8
2018-Jan-03 21:19N 46°28' W 128°27'411.8
2018-Jan-03 21:00N 46°28' W 128°33'1411.9
2018-Jan-03 19:49N 46°29' W 128°53'611.8
2018-Jan-03 19:18N 46°30' W 129°02'411.4
2018-Jan-03 18:59N 46°31' W 129°07'511.5
2018-Jan-03 18:30N 46°33' W 129°14'611.7
2018-Jan-03 18:00N 46°35' W 129°22'611.7
2018-Jan-03 17:31N 46°37' W 129°30'611.4
2018-Jan-03 17:01N 46°40' W 129°38'611.2
2018-Jan-03 16:29N 46°42' W 129°46'5912.1
2018-Jan-03 11:37N 47°01' W 131°07'0 2.7
2018-Jan-03 11:29N 47°01' W 131°07'1112.2
2018-Jan-03 10:36N 47°05' W 131°22'112.0
2018-Jan-03 10:31N 47°05' W 131°24'712.0
2018-Jan-03 09:56N 47°08' W 131°33'611.9
2018-Jan-03 09:28N 47°09' W 131°41'512.0
2018-Jan-03 09:01N 47°11' W 131°48'612.1
2018-Jan-03 08:30N 47°13' W 131°57'612.1
2018-Jan-03 07:59N 47°15' W 132°06'612.0
2018-Jan-03 07:30N 47°17' W 132°14'611.9
2018-Jan-03 07:01N 47°19' W 132°22'2812.0
2018-Jan-03 04:43N 47°27' W 133°01'4711.8
2018-Jan-03 00:43N 47°43' W 134°07'  

Dump ship's entire track history